createdAt,value
2022-08-29T00:01:59.062Z,17.92
2022-08-29T00:04:25.608Z,17.88
2022-08-29T00:06:52.362Z,17.85
2022-08-29T00:09:18.793Z,17.80
2022-08-29T00:11:46.649Z,17.76
2022-08-29T00:14:21.080Z,17.74
2022-08-29T00:16:50.223Z,17.70
2022-08-29T00:19:16.733Z,17.67
2022-08-29T00:21:43.226Z,17.64
2022-08-29T00:24:09.698Z,17.62
2022-08-29T00:26:36.152Z,17.60
2022-08-29T00:29:02.701Z,17.59
2022-08-29T00:31:29.204Z,17.57
2022-08-29T00:33:57.582Z,17.55
2022-08-29T00:36:25.257Z,17.53
2022-08-29T00:38:52.964Z,17.52
2022-08-29T00:41:19.721Z,17.51
2022-08-29T00:43:46.372Z,17.50
2022-08-29T00:46:41.452Z,17.44
2022-08-29T00:49:13.451Z,17.40
2022-08-29T00:51:41.046Z,17.38
2022-08-29T00:54:10.084Z,17.33
2022-08-29T00:56:37.981Z,17.24
2022-08-29T00:59:09.381Z,17.18
2022-08-29T01:01:36.049Z,17.11
2022-08-29T01:04:02.647Z,17.07
2022-08-29T01:06:32.066Z,17.00
2022-08-29T01:08:58.917Z,16.97
2022-08-29T01:11:44.599Z,16.92
2022-08-29T01:14:11.150Z,16.89
2022-08-29T01:16:37.699Z,16.87
2022-08-29T01:19:16.131Z,16.85
2022-08-29T01:21:52.470Z,16.80
2022-08-29T01:24:38.881Z,16.74
2022-08-29T01:27:05.685Z,16.69
2022-08-29T01:29:32.232Z,16.66
2022-08-29T01:31:58.698Z,16.62
2022-08-29T01:34:27.163Z,16.57
2022-08-29T01:36:56.469Z,16.55
2022-08-29T01:39:26.556Z,16.53
2022-08-29T01:41:53.483Z,16.49
2022-08-29T01:44:21.796Z,16.50
2022-08-29T01:46:51.059Z,16.49
2022-08-29T01:49:18.812Z,16.46
2022-08-29T01:51:45.762Z,16.44
2022-08-29T01:54:13.025Z,16.41
2022-08-29T01:56:43.130Z,16.38
2022-08-29T01:59:14.619Z,16.35
2022-08-29T02:01:46.595Z,16.34
2022-08-29T02:04:13.102Z,16.30
2022-08-29T02:06:40.219Z,16.28
2022-08-29T02:09:07.070Z,16.28
2022-08-29T02:11:38.745Z,16.25
2022-08-29T02:14:06.435Z,16.23
2022-08-29T02:16:33.010Z,16.24
2022-08-29T02:19:00.032Z,16.22
2022-08-29T02:21:29.105Z,16.22
2022-08-29T02:23:57.980Z,16.20
2022-08-29T02:26:24.441Z,16.19
2022-08-29T02:28:51.762Z,16.17
2022-08-29T02:31:19.794Z,16.15
2022-08-29T02:33:46.693Z,16.13
2022-08-29T02:36:13.746Z,16.13
2022-08-29T02:38:40.598Z,16.09
2022-08-29T02:41:09.370Z,16.07
2022-08-29T02:43:38.932Z,16.04
2022-08-29T02:46:05.394Z,16.04
2022-08-29T02:48:31.998Z,16.00
2022-08-29T02:51:01.255Z,15.97
2022-08-29T02:53:30.998Z,15.97
2022-08-29T02:55:58.250Z,15.96
2022-08-29T02:58:25.558Z,15.96
2022-08-29T03:00:53.982Z,15.92
2022-08-29T03:03:21.090Z,15.90
2022-08-29T03:05:47.967Z,15.87
2022-08-29T03:08:14.976Z,15.85
2022-08-29T03:10:42.673Z,15.86
2022-08-29T03:13:09.990Z,15.86
2022-08-29T03:15:36.439Z,15.88
2022-08-29T03:18:03.261Z,15.90
2022-08-29T03:20:29.851Z,15.91
2022-08-29T03:22:56.436Z,15.92
2022-08-29T03:25:23.534Z,15.93
2022-08-29T03:27:50.220Z,15.94
2022-08-29T03:30:17.358Z,15.95
2022-08-29T03:32:44.938Z,15.96
2022-08-29T03:35:12.058Z,16.00
2022-08-29T03:37:38.588Z,15.99
2022-08-29T03:40:06.359Z,16.01
2022-08-29T03:42:32.889Z,16.02
2022-08-29T03:44:59.321Z,16.04
2022-08-29T03:47:25.893Z,16.06
2022-08-29T03:49:52.326Z,16.07
2022-08-29T03:52:18.767Z,16.07
2022-08-29T03:54:45.238Z,16.09
2022-08-29T03:57:11.905Z,16.09
2022-08-29T03:59:38.401Z,16.09
2022-08-29T04:02:04.967Z,16.09
2022-08-29T04:04:50.128Z,16.10
2022-08-29T04:07:17.662Z,16.12
2022-08-29T04:09:44.325Z,16.14
2022-08-29T04:12:12.090Z,16.16
2022-08-29T04:14:39.239Z,16.17
2022-08-29T04:17:05.985Z,16.19
2022-08-29T04:19:33.253Z,16.22
2022-08-29T04:22:00.127Z,16.23
2022-08-29T04:24:26.776Z,16.24
2022-08-29T04:26:53.290Z,16.25
2022-08-29T04:29:19.726Z,16.26
2022-08-29T04:31:46.185Z,16.26
2022-08-29T04:34:13.279Z,16.25
2022-08-29T04:36:42.840Z,16.28
2022-08-29T04:39:09.820Z,16.29
2022-08-29T04:41:36.895Z,16.30
2022-08-29T04:44:04.652Z,16.34
2022-08-29T04:46:31.548Z,16.36
2022-08-29T04:49:01.910Z,16.39
2022-08-29T04:51:31.075Z,16.40
2022-08-29T04:53:57.558Z,16.42
2022-08-29T04:56:24.073Z,16.45
2022-08-29T04:58:51.921Z,16.48
2022-08-29T05:01:22.220Z,16.52
2022-08-29T05:03:49.333Z,16.54
2022-08-29T05:06:17.875Z,16.60
2022-08-29T05:08:46.191Z,16.63
2022-08-29T05:11:22.528Z,16.67
2022-08-29T05:13:50.009Z,16.70
2022-08-29T05:16:17.696Z,16.72
2022-08-29T05:18:46.171Z,16.75
2022-08-29T05:21:14.004Z,16.76
2022-08-29T05:23:40.582Z,16.81
2022-08-29T05:26:07.071Z,16.81
2022-08-29T05:28:34.998Z,16.81
2022-08-29T05:31:02.053Z,16.83
2022-08-29T05:33:28.659Z,16.86
2022-08-29T05:35:55.128Z,16.84
2022-08-29T05:38:21.607Z,16.91
2022-08-29T05:40:48.138Z,16.94
2022-08-29T05:43:14.687Z,16.96
2022-08-29T05:45:41.771Z,16.97
2022-08-29T05:48:09.416Z,17.02
2022-08-29T05:50:43.579Z,17.07
2022-08-29T05:53:11.942Z,17.09
2022-08-29T05:55:44.379Z,17.11
2022-08-29T05:58:12.014Z,17.17
2022-08-29T06:00:42.692Z,17.22
2022-08-29T06:03:10.874Z,17.28
2022-08-29T06:05:38.125Z,17.32
2022-08-29T06:08:05.303Z,17.36
2022-08-29T06:10:32.020Z,17.35
2022-08-29T06:12:58.491Z,17.44
2022-08-29T06:15:28.409Z,17.46
2022-08-29T06:17:56.077Z,17.56
2022-08-29T06:20:23.713Z,17.60
2022-08-29T06:22:50.172Z,17.64
2022-08-29T06:25:37.993Z,17.71
2022-08-29T06:28:03.519Z,17.72
2022-08-29T06:30:31.884Z,17.71
2022-08-29T06:32:58.573Z,17.80
2022-08-29T06:35:25.019Z,17.84
2022-08-29T06:37:51.783Z,17.88
2022-08-29T06:40:18.373Z,17.90
2022-08-29T06:42:44.890Z,17.94
2022-08-29T06:45:11.386Z,17.98
2022-08-29T06:47:37.857Z,18.03
2022-08-29T06:50:04.626Z,18.06
2022-08-29T06:52:31.080Z,18.15
2022-08-29T06:54:57.550Z,18.17
2022-08-29T06:57:24.040Z,18.27
2022-08-29T06:59:50.480Z,18.32
2022-08-29T07:02:17.019Z,18.39
2022-08-29T07:04:43.722Z,18.46
2022-08-29T07:07:10.158Z,18.52
2022-08-29T07:09:36.655Z,18.54
2022-08-29T07:12:03.478Z,18.62
2022-08-29T07:14:29.959Z,18.66
2022-08-29T07:16:56.665Z,18.74
2022-08-29T07:19:23.113Z,18.78
2022-08-29T07:21:49.604Z,18.85
2022-08-29T07:24:16.069Z,18.91
2022-08-29T07:26:43.770Z,18.92
2022-08-29T07:29:14.408Z,19.03
2022-08-29T07:31:41.228Z,19.08
2022-08-29T07:34:07.968Z,19.12
2022-08-29T07:36:35.002Z,19.20
2022-08-29T07:39:03.656Z,19.22
2022-08-29T07:41:30.169Z,19.32
2022-08-29T07:43:57.397Z,19.31
2022-08-29T07:46:25.558Z,19.44
2022-08-29T07:48:52.787Z,19.54
2022-08-29T07:51:22.893Z,19.66
2022-08-29T07:53:49.557Z,19.70
2022-08-29T07:56:20.354Z,19.77
2022-08-29T07:58:46.880Z,19.85
2022-08-29T08:01:20.924Z,19.89
2022-08-29T08:03:49.966Z,19.95
2022-08-29T08:06:17.446Z,19.97
2022-08-29T08:08:43.978Z,19.97
2022-08-29T08:11:10.479Z,19.98
2022-08-29T08:13:37.299Z,19.96
2022-08-29T08:16:09.181Z,20.03
2022-08-29T08:18:36.606Z,19.99
2022-08-29T08:21:03.295Z,20.01
2022-08-29T08:23:29.817Z,20.10
2022-08-29T08:25:56.322Z,20.05
2022-08-29T08:28:22.928Z,20.12
2022-08-29T08:30:49.444Z,20.20
2022-08-29T08:33:16.176Z,20.26
2022-08-29T08:35:46.736Z,20.36
2022-08-29T08:38:13.857Z,20.40
2022-08-29T08:40:46.494Z,20.50
2022-08-29T08:43:26.214Z,20.48
2022-08-29T08:45:55.244Z,20.60
2022-08-29T08:48:24.428Z,20.69
2022-08-29T08:51:03.800Z,20.74
2022-08-29T08:53:36.384Z,20.81
2022-08-29T08:56:16.789Z,20.83
2022-08-29T08:58:53.450Z,20.88
2022-08-29T09:01:27.838Z,20.87
2022-08-29T09:04:21.755Z,20.93
2022-08-29T09:07:22.345Z,21.04
2022-08-29T09:10:10.474Z,21.17
2022-08-29T09:13:00.964Z,21.27
2022-08-29T09:15:44.683Z,21.20
2022-08-29T09:18:44.447Z,21.30
2022-08-29T09:21:40.023Z,21.37
2022-08-29T09:24:12.823Z,21.46
2022-08-29T09:26:39.276Z,21.58
2022-08-29T09:29:09.127Z,21.58
2022-08-29T09:31:36.012Z,21.57
2022-08-29T09:34:11.669Z,21.56
2022-08-29T09:36:45.897Z,21.61
2022-08-29T09:39:30.347Z,21.70
2022-08-29T09:42:00.033Z,21.86
2022-08-29T09:44:34.670Z,22.00
2022-08-29T09:47:07.287Z,22.09
2022-08-29T09:49:34.422Z,22.01
2022-08-29T09:52:24.662Z,22.11
2022-08-29T09:54:51.253Z,22.05
2022-08-29T09:57:29.204Z,22.08
2022-08-29T10:00:18.253Z,22.18
2022-08-29T10:02:53.972Z,22.28
2022-08-29T10:05:36.915Z,22.34
2022-08-29T10:08:07.526Z,22.48
2022-08-29T10:10:36.189Z,22.51
2022-08-29T10:13:20.542Z,22.53
2022-08-29T10:16:08.995Z,22.59
2022-08-29T10:18:51.496Z,22.62
2022-08-29T10:21:33.391Z,22.77
2022-08-29T10:24:20.434Z,22.87
2022-08-29T10:26:50.129Z,22.87
2022-08-29T10:29:41.343Z,22.87
2022-08-29T10:32:13.720Z,22.96
2022-08-29T10:35:01.677Z,22.97
2022-08-29T10:38:05.686Z,22.93
2022-08-29T10:40:50.090Z,22.95
2022-08-29T10:43:27.025Z,23.06
2022-08-29T10:46:05.762Z,23.17
2022-08-29T10:48:47.507Z,23.11
2022-08-29T10:51:20.302Z,23.30
2022-08-29T10:53:58.584Z,23.41
2022-08-29T10:56:31.195Z,23.50
2022-08-29T10:59:09.109Z,23.55
2022-08-29T11:01:48.590Z,23.61
2022-08-29T11:04:27.139Z,23.63
2022-08-29T11:07:23.167Z,23.68
2022-08-29T11:09:52.624Z,23.65
2022-08-29T11:12:46.061Z,23.69
2022-08-29T11:15:18.293Z,23.70
2022-08-29T11:17:48.620Z,23.78
2022-08-29T11:20:22.331Z,23.82
2022-08-29T11:22:56.385Z,23.79
2022-08-29T11:25:22.840Z,23.80
2022-08-29T11:28:01.210Z,23.81
2022-08-29T11:30:30.809Z,23.78
2022-08-29T11:33:04.024Z,23.81
2022-08-29T11:35:33.341Z,23.85
2022-08-29T11:38:24.777Z,23.80
2022-08-29T11:41:27.604Z,23.83
2022-08-29T11:43:59.647Z,23.94
2022-08-29T11:46:40.075Z,24.01
2022-08-29T11:49:24.678Z,24.11
2022-08-29T11:51:54.975Z,24.20
2022-08-29T11:54:25.009Z,24.27
2022-08-29T11:57:11.567Z,24.24
2022-08-29T11:59:44.279Z,24.27
2022-08-29T12:02:31.414Z,24.24
2022-08-29T12:05:20.677Z,24.22
2022-08-29T12:07:54.864Z,24.25
2022-08-29T12:10:24.146Z,24.20
2022-08-29T12:13:05.237Z,24.21
2022-08-29T12:15:38.075Z,24.13
2022-08-29T12:18:07.291Z,24.12
2022-08-29T12:20:56.947Z,24.19
2022-08-29T12:23:31.620Z,24.24
2022-08-29T12:28:59.318Z,24.28
2022-08-29T12:31:38.277Z,24.24
2022-08-29T12:34:18.901Z,24.33
2022-08-29T12:37:19.560Z,24.38
2022-08-29T12:39:59.305Z,24.48
2022-08-29T12:42:39.997Z,24.56
2022-08-29T12:45:13.162Z,24.63
2022-08-29T12:47:49.249Z,24.72
2022-08-29T12:50:29.168Z,24.62
2022-08-29T12:53:23.412Z,24.67
2022-08-29T12:55:58.510Z,24.79
2022-08-29T12:58:46.874Z,24.80
2022-08-29T13:01:25.524Z,24.86
2022-08-29T13:04:01.765Z,24.74
2022-08-29T13:06:28.309Z,24.72
2022-08-29T13:08:54.837Z,24.67
2022-08-29T13:11:24.585Z,24.60
2022-08-29T13:13:51.203Z,24.63
2022-08-29T13:16:30.208Z,24.74
2022-08-29T13:19:12.063Z,24.79
2022-08-29T13:21:38.926Z,24.83
2022-08-29T13:24:21.130Z,24.84
2022-08-29T13:27:05.575Z,24.85
2022-08-29T13:29:39.971Z,24.79
2022-08-29T13:32:23.546Z,24.74
2022-08-29T13:35:18.288Z,24.64
2022-08-29T13:37:46.775Z,24.65
2022-08-29T13:40:31.602Z,24.62
2022-08-29T13:42:59.058Z,24.59
2022-08-29T13:45:26.141Z,24.57
2022-08-29T13:48:03.585Z,24.62
2022-08-29T13:50:31.185Z,24.60
2022-08-29T13:52:58.223Z,24.64
2022-08-29T13:55:24.967Z,24.74
2022-08-29T13:57:53.392Z,24.75
2022-08-29T14:00:27.224Z,24.77
2022-08-29T14:03:02.128Z,24.80
2022-08-29T14:05:28.697Z,24.88
2022-08-29T14:07:55.207Z,24.95
2022-08-29T14:10:21.809Z,24.89
2022-08-29T14:12:48.268Z,24.89
2022-08-29T14:15:17.935Z,24.93
2022-08-29T14:17:46.111Z,24.99
2022-08-29T14:20:13.442Z,25.06
2022-08-29T14:22:40.543Z,25.06
2022-08-29T14:25:08.567Z,25.09
2022-08-29T14:27:35.024Z,25.19
2022-08-29T14:30:01.520Z,25.12
2022-08-29T14:32:27.967Z,25.18
2022-08-29T14:34:54.428Z,25.14
2022-08-29T14:37:21.346Z,25.23
2022-08-29T14:39:49.856Z,25.29
2022-08-29T14:42:16.688Z,25.28
2022-08-29T14:44:43.122Z,25.27
2022-08-29T14:47:09.566Z,25.28
2022-08-29T14:49:36.337Z,25.30
2022-08-29T14:52:03.265Z,25.31
2022-08-29T14:54:29.857Z,25.32
2022-08-29T14:56:56.315Z,25.39
2022-08-29T14:59:25.439Z,25.40
2022-08-29T15:01:54.835Z,25.37
2022-08-29T15:04:36.336Z,25.33
2022-08-29T15:07:05.701Z,25.40
2022-08-29T15:09:32.278Z,25.35
2022-08-29T15:11:58.719Z,25.37
2022-08-29T15:14:25.271Z,25.38
2022-08-29T15:16:51.713Z,25.41
2022-08-29T15:19:53.667Z,25.41
2022-08-29T15:22:05.320Z,25.44
2022-08-29T15:24:31.874Z,25.46
2022-08-29T15:26:58.667Z,25.53
2022-08-29T15:29:25.411Z,25.55
2022-08-29T15:31:51.889Z,25.55
2022-08-29T15:34:18.782Z,25.52
2022-08-29T15:36:45.252Z,25.48
2022-08-29T15:39:13.133Z,25.44
2022-08-29T15:41:39.580Z,25.42
2022-08-29T15:44:06.039Z,25.42
2022-08-29T15:46:33.925Z,25.48
2022-08-29T15:49:06.517Z,25.51
2022-08-29T15:51:33.779Z,25.55
2022-08-29T15:54:00.502Z,25.55
2022-08-29T15:56:27.079Z,25.62
2022-08-29T15:58:53.529Z,25.65
2022-08-29T16:01:20.048Z,25.65
2022-08-29T16:03:46.493Z,25.71
2022-08-29T16:06:12.936Z,25.69
2022-08-29T16:08:39.394Z,25.78
2022-08-29T16:11:12.517Z,25.75
2022-08-29T16:13:38.970Z,25.85
2022-08-29T16:16:05.497Z,25.90
2022-08-29T16:18:32.025Z,25.85
2022-08-29T16:20:58.496Z,25.87
2022-08-29T16:23:24.946Z,25.80
2022-08-29T16:25:51.378Z,25.73
2022-08-29T16:28:18.690Z,25.72
2022-08-29T16:30:46.277Z,25.68
2022-08-29T16:33:13.481Z,25.64
2022-08-29T16:35:39.914Z,25.65
2022-08-29T16:38:06.352Z,25.57
2022-08-29T16:40:32.862Z,25.61
2022-08-29T16:43:00.575Z,25.94
2022-08-29T16:45:27.029Z,25.92
2022-08-29T16:47:57.393Z,25.91
2022-08-29T16:50:24.254Z,26.19
2022-08-29T16:52:50.726Z,27.10
2022-08-29T16:55:17.186Z,27.79
2022-08-29T16:58:03.555Z,28.84
2022-08-29T17:00:30.287Z,30.26
2022-08-29T17:02:56.933Z,30.55
2022-08-29T17:05:24.372Z,29.89
2022-08-29T17:07:50.931Z,29.66
2022-08-29T17:10:17.354Z,30.21
2022-08-29T17:12:43.748Z,30.86
2022-08-29T17:15:10.168Z,31.17
2022-08-29T17:17:36.612Z,31.41
2022-08-29T17:20:03.629Z,30.60
2022-08-29T17:22:30.075Z,29.77
2022-08-29T17:24:56.539Z,29.12
2022-08-29T17:27:26.791Z,28.53
2022-08-29T17:29:55.888Z,28.09
2022-08-29T17:32:22.935Z,27.68
2022-08-29T17:34:50.281Z,27.36
2022-08-29T17:37:16.732Z,27.08
2022-08-29T17:39:43.232Z,26.78
2022-08-29T17:42:10.085Z,26.55
2022-08-29T17:44:36.526Z,26.38
2022-08-29T17:47:02.990Z,26.24
2022-08-29T17:49:29.737Z,26.10
2022-08-29T17:51:56.197Z,25.91
2022-08-29T17:54:23.922Z,25.79
2022-08-29T17:56:56.291Z,25.67
2022-08-29T17:59:27.198Z,25.55
2022-08-29T18:01:54.518Z,25.46
2022-08-29T18:04:22.094Z,25.36
2022-08-29T18:06:48.761Z,25.27
2022-08-29T18:09:15.429Z,25.15
2022-08-29T18:11:44.594Z,25.06
2022-08-29T18:14:11.681Z,24.97
2022-08-29T18:16:38.529Z,24.89
2022-08-29T18:19:05.490Z,24.81
2022-08-29T18:21:32.884Z,24.72
2022-08-29T18:23:59.959Z,24.63
2022-08-29T18:26:27.017Z,24.54
2022-08-29T18:28:54.249Z,24.47
2022-08-29T18:31:21.305Z,24.40
2022-08-29T18:34:03.373Z,24.33
2022-08-29T18:36:32.022Z,24.26
2022-08-29T18:38:58.706Z,24.19
2022-08-29T18:41:25.223Z,24.13
2022-08-29T18:43:51.827Z,24.10
2022-08-29T18:46:18.772Z,24.04
2022-08-29T18:48:45.564Z,24.00
2022-08-29T18:51:12.641Z,23.95
2022-08-29T18:53:39.774Z,23.92
2022-08-29T18:56:06.766Z,23.84
2022-08-29T18:58:34.271Z,23.73
2022-08-29T19:01:27.490Z,23.64
2022-08-29T19:03:56.216Z,23.62
2022-08-29T19:06:26.044Z,23.57
2022-08-29T19:08:53.830Z,23.53
2022-08-29T19:11:20.488Z,23.51
2022-08-29T19:13:49.207Z,23.48
2022-08-29T19:16:20.367Z,23.42
2022-08-29T19:18:47.166Z,23.39
2022-08-29T19:21:14.200Z,23.32
2022-08-29T19:23:46.135Z,23.29
2022-08-29T19:26:17.343Z,23.23
2022-08-29T19:28:44.780Z,23.22
2022-08-29T19:31:12.498Z,23.18
2022-08-29T19:33:42.058Z,23.07
2022-08-29T19:36:09.678Z,23.02
2022-08-29T19:38:36.822Z,22.98
2022-08-29T19:41:05.140Z,22.96
2022-08-29T19:43:33.236Z,22.84
2022-08-29T19:46:01.493Z,22.83
2022-08-29T19:48:28.550Z,22.78
2022-08-29T19:50:55.836Z,22.74
2022-08-29T19:53:26.517Z,22.66
2022-08-29T19:55:55.277Z,22.65
2022-08-29T19:58:32.020Z,22.61
2022-08-29T20:01:03.764Z,22.57
2022-08-29T20:03:31.292Z,22.53
2022-08-29T20:05:59.855Z,22.43
2022-08-29T20:08:27.413Z,22.45
2022-08-29T20:10:56.020Z,22.42
2022-08-29T20:13:22.799Z,22.42
2022-08-29T20:15:50.095Z,22.40
2022-08-29T20:18:18.775Z,22.37
2022-08-29T20:20:46.073Z,22.35
2022-08-29T20:23:14.815Z,22.34
2022-08-29T20:25:41.586Z,22.28
2022-08-29T20:28:08.199Z,22.29
2022-08-29T20:30:43.093Z,22.27
2022-08-29T20:33:11.870Z,22.23
2022-08-29T20:35:58.397Z,22.21
2022-08-29T20:38:25.035Z,22.16
2022-08-29T20:40:54.620Z,22.14
2022-08-29T20:43:21.690Z,22.07
2022-08-29T20:45:48.373Z,22.06
2022-08-29T20:48:15.257Z,22.04
2022-08-29T20:50:42.117Z,22.01
2022-08-29T20:53:14.480Z,21.99
2022-08-29T20:55:43.515Z,21.96
2022-08-29T20:58:10.097Z,21.93
2022-08-29T21:00:36.878Z,21.87
2022-08-29T21:03:22.204Z,21.81
2022-08-29T21:05:48.793Z,21.74
2022-08-29T21:08:21.201Z,21.68
2022-08-29T21:10:49.320Z,21.62
2022-08-29T21:13:17.282Z,21.58
2022-08-29T21:15:44.367Z,21.53
2022-08-29T21:18:12.888Z,21.48
2022-08-29T21:20:53.967Z,21.45
2022-08-29T21:23:23.245Z,21.40
2022-08-29T21:25:59.144Z,21.37
2022-08-29T21:28:27.091Z,21.36
2022-08-29T21:30:54.519Z,21.34
2022-08-29T21:33:21.411Z,21.31
2022-08-29T21:35:50.000Z,21.27
2022-08-29T21:38:17.336Z,21.25
2022-08-29T21:40:50.522Z,21.23
2022-08-29T21:43:17.599Z,21.22
2022-08-29T21:45:44.624Z,21.19
2022-08-29T21:48:11.268Z,21.16
2022-08-29T21:50:38.585Z,21.13
2022-08-29T21:53:05.811Z,21.11
2022-08-29T21:55:33.121Z,21.10
2022-08-29T21:58:00.766Z,21.09
2022-08-29T22:00:35.420Z,21.07
2022-08-29T22:03:05.504Z,21.04
2022-08-29T22:05:33.109Z,20.98
2022-08-29T22:08:01.189Z,20.92
2022-08-29T22:10:31.198Z,20.89
2022-08-29T22:12:58.922Z,20.85
2022-08-29T22:15:44.996Z,20.80
2022-08-29T22:18:14.595Z,20.74
2022-08-29T22:20:42.739Z,20.72
2022-08-29T22:23:10.025Z,20.68
2022-08-29T22:25:36.992Z,20.66
2022-08-29T22:28:04.232Z,20.65
2022-08-29T22:30:32.568Z,20.61
2022-08-29T22:33:00.468Z,20.58
2022-08-29T22:35:27.950Z,20.55
2022-08-29T22:37:54.697Z,20.51
2022-08-29T22:40:21.520Z,20.50
2022-08-29T22:42:48.352Z,20.47
2022-08-29T22:45:16.425Z,20.41
2022-08-29T22:47:44.690Z,20.39
2022-08-29T22:50:15.863Z,20.36
2022-08-29T22:52:42.515Z,20.31
2022-08-29T22:55:12.718Z,20.28
2022-08-29T22:57:40.755Z,20.20
2022-08-29T23:00:09.219Z,20.17
2022-08-29T23:02:35.935Z,20.12
2022-08-29T23:05:06.378Z,20.10
2022-08-29T23:07:35.653Z,20.07
2022-08-29T23:10:03.478Z,20.05
2022-08-29T23:12:30.280Z,20.02
2022-08-29T23:14:57.033Z,19.98
2022-08-29T23:17:23.622Z,19.95
2022-08-29T23:19:50.302Z,19.93
2022-08-29T23:22:16.989Z,19.89
2022-08-29T23:24:58.833Z,19.85
2022-08-29T23:27:27.558Z,19.83
2022-08-29T23:29:54.246Z,19.79
2022-08-29T23:32:20.974Z,19.77
2022-08-29T23:34:47.756Z,19.72
2022-08-29T23:37:14.342Z,19.70
2022-08-29T23:39:40.992Z,19.65
2022-08-29T23:42:07.776Z,19.64
2022-08-29T23:44:35.922Z,19.63
2022-08-29T23:47:02.862Z,19.61
2022-08-29T23:49:29.816Z,19.57
2022-08-29T23:51:56.681Z,19.53
2022-08-29T23:54:25.858Z,19.44
2022-08-29T23:56:53.506Z,19.39
2022-08-29T23:59:38.888Z,19.39
